sensor_id;sensor_type;location;lat;lon;timestamp;P1;durP1;ratioP1;P2;durP2;ratioP2
13321;SDS011;6730;46.248;6.930;2023-02-28T00:00:19;6.23;;;4.50;;
13321;SDS011;6730;46.248;6.930;2023-02-28T00:02:46;7.87;;;4.70;;
13321;SDS011;6730;46.248;6.930;2023-02-28T00:05:13;5.80;;;4.37;;
13321;SDS011;6730;46.248;6.930;2023-02-28T00:07:40;5.60;;;4.90;;
13321;SDS011;6730;46.248;6.930;2023-02-28T00:10:10;7.20;;;5.00;;
13321;SDS011;6730;46.248;6.930;2023-02-28T00:12:38;5.07;;;4.57;;
13321;SDS011;6730;46.248;6.930;2023-02-28T00:15:08;6.00;;;4.57;;
13321;SDS011;6730;46.248;6.930;2023-02-28T00:17:35;6.00;;;4.73;;
13321;SDS011;6730;46.248;6.930;2023-02-28T00:20:02;5.00;;;4.10;;
13321;SDS011;6730;46.248;6.930;2023-02-28T00:22:29;5.97;;;4.93;;
13321;SDS011;6730;46.248;6.930;2023-02-28T00:24:55;6.30;;;4.07;;
13321;SDS011;6730;46.248;6.930;2023-02-28T00:27:20;5.33;;;4.47;;
13321;SDS011;6730;46.248;6.930;2023-02-28T00:29:46;6.10;;;4.47;;
13321;SDS011;6730;46.248;6.930;2023-02-28T00:32:12;6.93;;;4.83;;
13321;SDS011;6730;46.248;6.930;2023-02-28T00:34:47;5.43;;;4.50;;
13321;SDS011;6730;46.248;6.930;2023-02-28T00:37:13;5.17;;;4.27;;
13321;SDS011;6730;46.248;6.930;2023-02-28T00:39:39;7.03;;;4.70;;
13321;SDS011;6730;46.248;6.930;2023-02-28T00:42:04;5.40;;;4.40;;
13321;SDS011;6730;46.248;6.930;2023-02-28T00:44:31;5.40;;;4.13;;
13321;SDS011;6730;46.248;6.930;2023-02-28T00:46:57;5.93;;;4.97;;
13321;SDS011;6730;46.248;6.930;2023-02-28T00:49:24;5.77;;;4.17;;
13321;SDS011;6730;46.248;6.930;2023-02-28T00:51:50;6.13;;;4.53;;
13321;SDS011;6730;46.248;6.930;2023-02-28T00:54:16;5.77;;;4.80;;
13321;SDS011;6730;46.248;6.930;2023-02-28T00:56:42;5.53;;;4.63;;
13321;SDS011;6730;46.248;6.930;2023-02-28T00:59:08;4.97;;;4.47;;
13321;SDS011;6730;46.248;6.930;2023-02-28T01:01:34;5.07;;;4.57;;
13321;SDS011;6730;46.248;6.930;2023-02-28T01:04:00;6.43;;;4.60;;
13321;SDS011;6730;46.248;6.930;2023-02-28T01:06:25;4.97;;;4.47;;
13321;SDS011;6730;46.248;6.930;2023-02-28T01:08:51;6.33;;;5.03;;
13321;SDS011;6730;46.248;6.930;2023-02-28T01:11:17;9.20;;;4.87;;
13321;SDS011;6730;46.248;6.930;2023-02-28T01:13:43;7.80;;;5.47;;
13321;SDS011;6730;46.248;6.930;2023-02-28T01:16:13;6.10;;;4.77;;
13321;SDS011;6730;46.248;6.930;2023-02-28T01:18:38;4.53;;;4.03;;
13321;SDS011;6730;46.248;6.930;2023-02-28T01:21:05;5.90;;;4.70;;
13321;SDS011;6730;46.248;6.930;2023-02-28T01:23:32;5.60;;;4.27;;
13321;SDS011;6730;46.248;6.930;2023-02-28T01:26:03;5.73;;;4.43;;
13321;SDS011;6730;46.248;6.930;2023-02-28T01:28:33;4.70;;;3.73;;
13321;SDS011;6730;46.248;6.930;2023-02-28T01:30:59;7.20;;;4.67;;
13321;SDS011;6730;46.248;6.930;2023-02-28T01:33:25;4.63;;;3.53;;
13321;SDS011;6730;46.248;6.930;2023-02-28T01:35:57;7.93;;;5.40;;
13321;SDS011;6730;46.248;6.930;2023-02-28T01:38:31;5.63;;;5.03;;
13321;SDS011;6730;46.248;6.930;2023-02-28T01:40:57;5.93;;;5.20;;
13321;SDS011;6730;46.248;6.930;2023-02-28T01:43:26;5.33;;;4.33;;
13321;SDS011;6730;46.248;6.930;2023-02-28T01:45:54;6.27;;;5.07;;
13321;SDS011;6730;46.248;6.930;2023-02-28T01:48:21;5.50;;;4.53;;
13321;SDS011;6730;46.248;6.930;2023-02-28T01:50:55;6.30;;;5.10;;
13321;SDS011;6730;46.248;6.930;2023-02-28T01:53:26;6.37;;;5.47;;
13321;SDS011;6730;46.248;6.930;2023-02-28T01:55:56;5.17;;;4.17;;
13321;SDS011;6730;46.248;6.930;2023-02-28T01:58:22;6.67;;;5.73;;
13321;SDS011;6730;46.248;6.930;2023-02-28T02:00:48;4.53;;;3.80;;
13321;SDS011;6730;46.248;6.930;2023-02-28T02:03:15;6.37;;;4.90;;
13321;SDS011;6730;46.248;6.930;2023-02-28T02:05:44;7.07;;;5.43;;
13321;SDS011;6730;46.248;6.930;2023-02-28T02:08:13;9.27;;;5.77;;
13321;SDS011;6730;46.248;6.930;2023-02-28T02:10:52;6.83;;;5.47;;
13321;SDS011;6730;46.248;6.930;2023-02-28T02:13:25;6.70;;;5.23;;
13321;SDS011;6730;46.248;6.930;2023-02-28T02:15:57;7.13;;;5.47;;
13321;SDS011;6730;46.248;6.930;2023-02-28T02:27:09;8.33;;;5.83;;
13321;SDS011;6730;46.248;6.930;2023-02-28T02:41:16;7.90;;;5.00;;
13321;SDS011;6730;46.248;6.930;2023-02-28T02:43:54;7.07;;;5.40;;
13321;SDS011;6730;46.248;6.930;2023-02-28T02:46:35;7.10;;;4.27;;
13321;SDS011;6730;46.248;6.930;2023-02-28T02:49:06;6.03;;;4.70;;
13321;SDS011;6730;46.248;6.930;2023-02-28T02:51:37;7.60;;;5.00;;
13321;SDS011;6730;46.248;6.930;2023-02-28T02:54:07;5.43;;;4.93;;
13321;SDS011;6730;46.248;6.930;2023-02-28T02:56:36;6.17;;;4.80;;
13321;SDS011;6730;46.248;6.930;2023-02-28T02:59:07;7.13;;;5.37;;
13321;SDS011;6730;46.248;6.930;2023-02-28T03:01:35;6.47;;;5.33;;
13321;SDS011;6730;46.248;6.930;2023-02-28T03:04:06;6.80;;;5.57;;
13321;SDS011;6730;46.248;6.930;2023-02-28T03:06:35;6.50;;;4.90;;
13321;SDS011;6730;46.248;6.930;2023-02-28T03:09:01;6.93;;;5.03;;
13321;SDS011;6730;46.248;6.930;2023-02-28T03:11:27;5.53;;;4.43;;
13321;SDS011;6730;46.248;6.930;2023-02-28T03:21:38;6.60;;;4.87;;
13321;SDS011;6730;46.248;6.930;2023-02-28T03:24:27;7.50;;;5.43;;
13321;SDS011;6730;46.248;6.930;2023-02-28T03:27:16;6.23;;;4.87;;
13321;SDS011;6730;46.248;6.930;2023-02-28T03:29:47;6.80;;;4.67;;
13321;SDS011;6730;46.248;6.930;2023-02-28T03:32:21;7.37;;;5.87;;
13321;SDS011;6730;46.248;6.930;2023-02-28T03:37:31;6.33;;;5.17;;
13321;SDS011;6730;46.248;6.930;2023-02-28T03:40:02;7.77;;;5.30;;
13321;SDS011;6730;46.248;6.930;2023-02-28T03:42:36;7.97;;;5.37;;
13321;SDS011;6730;46.248;6.930;2023-02-28T03:45:08;6.80;;;4.80;;
13321;SDS011;6730;46.248;6.930;2023-02-28T03:47:53;7.90;;;6.00;;
13321;SDS011;6730;46.248;6.930;2023-02-28T03:50:27;6.30;;;4.93;;
13321;SDS011;6730;46.248;6.930;2023-02-28T03:53:19;7.13;;;5.30;;
13321;SDS011;6730;46.248;6.930;2023-02-28T03:55:57;7.37;;;5.40;;
13321;SDS011;6730;46.248;6.930;2023-02-28T04:01:09;6.53;;;5.17;;
13321;SDS011;6730;46.248;6.930;2023-02-28T04:03:44;6.20;;;4.63;;
13321;SDS011;6730;46.248;6.930;2023-02-28T04:06:15;8.70;;;6.17;;
13321;SDS011;6730;46.248;6.930;2023-02-28T04:08:42;8.77;;;6.03;;
13321;SDS011;6730;46.248;6.930;2023-02-28T04:11:18;11.07;;;6.33;;
13321;SDS011;6730;46.248;6.930;2023-02-28T04:13:56;9.20;;;5.07;;
13321;SDS011;6730;46.248;6.930;2023-02-28T04:16:22;6.00;;;5.03;;
13321;SDS011;6730;46.248;6.930;2023-02-28T04:18:47;6.73;;;5.67;;
13321;SDS011;6730;46.248;6.930;2023-02-28T04:21:13;7.87;;;6.33;;
13321;SDS011;6730;46.248;6.930;2023-02-28T04:23:39;8.20;;;5.87;;
13321;SDS011;6730;46.248;6.930;2023-02-28T04:26:04;7.20;;;5.30;;
13321;SDS011;6730;46.248;6.930;2023-02-28T04:28:31;7.57;;;5.63;;
13321;SDS011;6730;46.248;6.930;2023-02-28T04:31:01;16.40;;;9.43;;
13321;SDS011;6730;46.248;6.930;2023-02-28T04:33:29;8.93;;;5.77;;
13321;SDS011;6730;46.248;6.930;2023-02-28T04:36:00;6.93;;;5.57;;
13321;SDS011;6730;46.248;6.930;2023-02-28T04:38:28;23.17;;;13.63;;
13321;SDS011;6730;46.248;6.930;2023-02-28T04:40:56;12.10;;;8.27;;
13321;SDS011;6730;46.248;6.930;2023-02-28T04:43:23;12.13;;;7.30;;
13321;SDS011;6730;46.248;6.930;2023-02-28T04:45:48;14.50;;;8.93;;
13321;SDS011;6730;46.248;6.930;2023-02-28T04:48:14;12.27;;;7.83;;
13321;SDS011;6730;46.248;6.930;2023-02-28T04:50:40;7.50;;;6.27;;
13321;SDS011;6730;46.248;6.930;2023-02-28T04:53:05;9.77;;;7.40;;
13321;SDS011;6730;46.248;6.930;2023-02-28T04:55:31;9.40;;;6.77;;
13321;SDS011;6730;46.248;6.930;2023-02-28T04:57:57;8.03;;;6.47;;
13321;SDS011;6730;46.248;6.930;2023-02-28T05:00:22;7.70;;;6.10;;
13321;SDS011;6730;46.248;6.930;2023-02-28T05:02:48;7.20;;;5.87;;
13321;SDS011;6730;46.248;6.930;2023-02-28T05:05:14;10.03;;;6.27;;
13321;SDS011;6730;46.248;6.930;2023-02-28T05:07:43;9.43;;;6.33;;
13321;SDS011;6730;46.248;6.930;2023-02-28T05:10:10;7.73;;;5.73;;
13321;SDS011;6730;46.248;6.930;2023-02-28T05:12:36;10.00;;;5.40;;
13321;SDS011;6730;46.248;6.930;2023-02-28T05:15:02;9.03;;;6.43;;
13321;SDS011;6730;46.248;6.930;2023-02-28T05:17:29;7.23;;;5.60;;
13321;SDS011;6730;46.248;6.930;2023-02-28T05:19:55;8.50;;;5.40;;
13321;SDS011;6730;46.248;6.930;2023-02-28T05:22:21;6.70;;;5.60;;
13321;SDS011;6730;46.248;6.930;2023-02-28T05:24:47;6.33;;;5.17;;
13321;SDS011;6730;46.248;6.930;2023-02-28T05:27:12;8.27;;;6.10;;
13321;SDS011;6730;46.248;6.930;2023-02-28T05:29:38;6.33;;;5.20;;
13321;SDS011;6730;46.248;6.930;2023-02-28T05:32:08;8.47;;;5.83;;
13321;SDS011;6730;46.248;6.930;2023-02-28T05:34:36;7.23;;;5.67;;
13321;SDS011;6730;46.248;6.930;2023-02-28T05:37:02;11.63;;;5.47;;
13321;SDS011;6730;46.248;6.930;2023-02-28T05:39:28;6.30;;;4.97;;
13321;SDS011;6730;46.248;6.930;2023-02-28T05:41:55;7.67;;;6.03;;
13321;SDS011;6730;46.248;6.930;2023-02-28T05:44:21;5.13;;;4.63;;
13321;SDS011;6730;46.248;6.930;2023-02-28T05:46:46;6.67;;;5.17;;
13321;SDS011;6730;46.248;6.930;2023-02-28T05:49:12;5.13;;;4.10;;
13321;SDS011;6730;46.248;6.930;2023-02-28T05:51:37;6.00;;;4.90;;
13321;SDS011;6730;46.248;6.930;2023-02-28T05:54:05;5.90;;;4.67;;
13321;SDS011;6730;46.248;6.930;2023-02-28T05:56:33;7.07;;;5.37;;
13321;SDS011;6730;46.248;6.930;2023-02-28T05:59:00;7.93;;;6.43;;
13321;SDS011;6730;46.248;6.930;2023-02-28T06:01:33;7.27;;;4.97;;
13321;SDS011;6730;46.248;6.930;2023-02-28T06:03:59;6.13;;;5.53;;
13321;SDS011;6730;46.248;6.930;2023-02-28T06:06:26;6.40;;;5.43;;
13321;SDS011;6730;46.248;6.930;2023-02-28T06:08:52;8.73;;;6.33;;
13321;SDS011;6730;46.248;6.930;2023-02-28T06:11:18;7.23;;;5.70;;
13321;SDS011;6730;46.248;6.930;2023-02-28T06:13:45;9.03;;;6.53;;
13321;SDS011;6730;46.248;6.930;2023-02-28T06:16:10;8.77;;;6.33;;
13321;SDS011;6730;46.248;6.930;2023-02-28T06:18:37;8.70;;;6.37;;
13321;SDS011;6730;46.248;6.930;2023-02-28T06:21:02;6.70;;;5.83;;
13321;SDS011;6730;46.248;6.930;2023-02-28T06:23:28;7.33;;;5.83;;
13321;SDS011;6730;46.248;6.930;2023-02-28T06:25:54;10.60;;;6.73;;
13321;SDS011;6730;46.248;6.930;2023-02-28T06:28:23;8.30;;;5.80;;
13321;SDS011;6730;46.248;6.930;2023-02-28T06:30:49;7.43;;;5.77;;
13321;SDS011;6730;46.248;6.930;2023-02-28T06:33:15;8.13;;;6.00;;
13321;SDS011;6730;46.248;6.930;2023-02-28T06:35:43;8.07;;;6.00;;
13321;SDS011;6730;46.248;6.930;2023-02-28T06:38:09;11.73;;;6.43;;
13321;SDS011;6730;46.248;6.930;2023-02-28T06:40:35;8.13;;;5.30;;
13321;SDS011;6730;46.248;6.930;2023-02-28T06:43:04;9.30;;;5.20;;
13321;SDS011;6730;46.248;6.930;2023-02-28T06:45:29;6.77;;;5.23;;
13321;SDS011;6730;46.248;6.930;2023-02-28T06:47:58;5.70;;;4.43;;
13321;SDS011;6730;46.248;6.930;2023-02-28T06:50:26;6.43;;;5.20;;
13321;SDS011;6730;46.248;6.930;2023-02-28T06:52:54;6.73;;;5.07;;
13321;SDS011;6730;46.248;6.930;2023-02-28T06:55:20;7.13;;;5.37;;
13321;SDS011;6730;46.248;6.930;2023-02-28T06:57:46;6.30;;;5.47;;
13321;SDS011;6730;46.248;6.930;2023-02-28T07:00:12;6.77;;;5.30;;
13321;SDS011;6730;46.248;6.930;2023-02-28T07:02:38;6.73;;;5.37;;
13321;SDS011;6730;46.248;6.930;2023-02-28T07:05:04;9.07;;;5.77;;
13321;SDS011;6730;46.248;6.930;2023-02-28T07:07:31;7.97;;;5.60;;
13321;SDS011;6730;46.248;6.930;2023-02-28T07:09:57;7.90;;;5.67;;
13321;SDS011;6730;46.248;6.930;2023-02-28T07:12:23;7.30;;;5.03;;
13321;SDS011;6730;46.248;6.930;2023-02-28T07:14:48;7.53;;;5.63;;
13321;SDS011;6730;46.248;6.930;2023-02-28T07:17:14;7.07;;;4.73;;
13321;SDS011;6730;46.248;6.930;2023-02-28T07:19:39;7.47;;;5.93;;
13321;SDS011;6730;46.248;6.930;2023-02-28T07:22:06;6.57;;;5.37;;
13321;SDS011;6730;46.248;6.930;2023-02-28T07:24:32;9.17;;;5.97;;
13321;SDS011;6730;46.248;6.930;2023-02-28T07:26:59;10.10;;;5.77;;
13321;SDS011;6730;46.248;6.930;2023-02-28T07:29:25;5.60;;;4.77;;
13321;SDS011;6730;46.248;6.930;2023-02-28T07:31:51;8.37;;;5.13;;
13321;SDS011;6730;46.248;6.930;2023-02-28T07:34:18;6.60;;;5.87;;
13321;SDS011;6730;46.248;6.930;2023-02-28T07:36:44;6.13;;;5.00;;
13321;SDS011;6730;46.248;6.930;2023-02-28T07:39:10;6.40;;;5.00;;
13321;SDS011;6730;46.248;6.930;2023-02-28T07:41:35;7.57;;;6.23;;
13321;SDS011;6730;46.248;6.930;2023-02-28T07:44:08;6.80;;;5.13;;
13321;SDS011;6730;46.248;6.930;2023-02-28T07:46:36;6.97;;;5.53;;
13321;SDS011;6730;46.248;6.930;2023-02-28T07:49:02;14.07;;;5.70;;
13321;SDS011;6730;46.248;6.930;2023-02-28T07:51:28;7.63;;;6.03;;
13321;SDS011;6730;46.248;6.930;2023-02-28T07:53:54;6.57;;;5.40;;
13321;SDS011;6730;46.248;6.930;2023-02-28T07:56:20;7.10;;;5.73;;
13321;SDS011;6730;46.248;6.930;2023-02-28T07:58:46;7.20;;;5.77;;
13321;SDS011;6730;46.248;6.930;2023-02-28T08:01:12;6.97;;;5.87;;
13321;SDS011;6730;46.248;6.930;2023-02-28T08:03:38;6.80;;;5.50;;
13321;SDS011;6730;46.248;6.930;2023-02-28T08:06:05;8.13;;;5.90;;
13321;SDS011;6730;46.248;6.930;2023-02-28T08:08:32;7.97;;;6.30;;
13321;SDS011;6730;46.248;6.930;2023-02-28T08:11:01;10.37;;;6.53;;
13321;SDS011;6730;46.248;6.930;2023-02-28T08:13:28;7.73;;;5.47;;
13321;SDS011;6730;46.248;6.930;2023-02-28T08:15:54;6.63;;;5.60;;
13321;SDS011;6730;46.248;6.930;2023-02-28T08:18:21;7.77;;;6.17;;
13321;SDS011;6730;46.248;6.930;2023-02-28T08:20:47;6.87;;;6.17;;
13321;SDS011;6730;46.248;6.930;2023-02-28T08:23:13;6.93;;;6.23;;
13321;SDS011;6730;46.248;6.930;2023-02-28T08:25:39;8.63;;;5.90;;
13321;SDS011;6730;46.248;6.930;2023-02-28T08:28:04;7.10;;;5.93;;
13321;SDS011;6730;46.248;6.930;2023-02-28T08:30:30;7.30;;;5.63;;
13321;SDS011;6730;46.248;6.930;2023-02-28T08:32:56;7.93;;;5.97;;
13321;SDS011;6730;46.248;6.930;2023-02-28T08:35:22;7.43;;;5.57;;
13321;SDS011;6730;46.248;6.930;2023-02-28T08:37:48;7.80;;;6.50;;
13321;SDS011;6730;46.248;6.930;2023-02-28T08:40:14;7.77;;;5.77;;
13321;SDS011;6730;46.248;6.930;2023-02-28T08:42:44;6.77;;;5.47;;
13321;SDS011;6730;46.248;6.930;2023-02-28T08:45:10;8.53;;;6.37;;
13321;SDS011;6730;46.248;6.930;2023-02-28T08:47:36;8.77;;;6.47;;
13321;SDS011;6730;46.248;6.930;2023-02-28T08:50:02;6.63;;;5.13;;
13321;SDS011;6730;46.248;6.930;2023-02-28T08:52:29;10.57;;;6.13;;
13321;SDS011;6730;46.248;6.930;2023-02-28T08:54:55;9.93;;;6.63;;
13321;SDS011;6730;46.248;6.930;2023-02-28T08:57:20;8.33;;;6.13;;
13321;SDS011;6730;46.248;6.930;2023-02-28T08:59:46;8.67;;;5.97;;
13321;SDS011;6730;46.248;6.930;2023-02-28T09:02:12;9.90;;;7.00;;
13321;SDS011;6730;46.248;6.930;2023-02-28T09:04:39;9.27;;;6.60;;
13321;SDS011;6730;46.248;6.930;2023-02-28T09:07:05;11.50;;;8.57;;
13321;SDS011;6730;46.248;6.930;2023-02-28T09:09:31;7.23;;;5.90;;
13321;SDS011;6730;46.248;6.930;2023-02-28T09:11:56;10.80;;;7.53;;
13321;SDS011;6730;46.248;6.930;2023-02-28T09:14:22;8.77;;;7.00;;
13321;SDS011;6730;46.248;6.930;2023-02-28T09:16:48;7.97;;;6.37;;
13321;SDS011;6730;46.248;6.930;2023-02-28T09:19:13;7.63;;;6.00;;
13321;SDS011;6730;46.248;6.930;2023-02-28T09:21:39;6.60;;;5.70;;
13321;SDS011;6730;46.248;6.930;2023-02-28T09:24:05;7.43;;;5.67;;
13321;SDS011;6730;46.248;6.930;2023-02-28T09:26:32;8.70;;;6.87;;
13321;SDS011;6730;46.248;6.930;2023-02-28T09:28:59;4.87;;;3.77;;
13321;SDS011;6730;46.248;6.930;2023-02-28T09:31:26;9.20;;;6.67;;
13321;SDS011;6730;46.248;6.930;2023-02-28T09:33:54;6.67;;;4.90;;
13321;SDS011;6730;46.248;6.930;2023-02-28T09:36:21;7.93;;;5.47;;
13321;SDS011;6730;46.248;6.930;2023-02-28T09:38:48;7.10;;;5.57;;
13321;SDS011;6730;46.248;6.930;2023-02-28T09:41:20;9.07;;;5.47;;
13321;SDS011;6730;46.248;6.930;2023-02-28T09:43:54;6.90;;;5.80;;
13321;SDS011;6730;46.248;6.930;2023-02-28T09:48:59;7.80;;;6.20;;
13321;SDS011;6730;46.248;6.930;2023-02-28T09:52:03;7.23;;;6.43;;
13321;SDS011;6730;46.248;6.930;2023-02-28T09:54:34;7.83;;;5.63;;
13321;SDS011;6730;46.248;6.930;2023-02-28T09:57:08;10.60;;;7.40;;
13321;SDS011;6730;46.248;6.930;2023-02-28T09:59:49;7.57;;;5.70;;
13321;SDS011;6730;46.248;6.930;2023-02-28T10:02:55;8.93;;;7.30;;
13321;SDS011;6730;46.248;6.930;2023-02-28T10:05:24;9.13;;;6.60;;
13321;SDS011;6730;46.248;6.930;2023-02-28T10:08:13;9.07;;;5.80;;
13321;SDS011;6730;46.248;6.930;2023-02-28T10:10:51;7.53;;;5.70;;
13321;SDS011;6730;46.248;6.930;2023-02-28T10:13:34;8.73;;;5.97;;
13321;SDS011;6730;46.248;6.930;2023-02-28T10:16:08;7.93;;;6.17;;
13321;SDS011;6730;46.248;6.930;2023-02-28T10:21:20;8.83;;;7.10;;
13321;SDS011;6730;46.248;6.930;2023-02-28T10:23:53;8.67;;;6.63;;
13321;SDS011;6730;46.248;6.930;2023-02-28T10:26:26;7.63;;;5.90;;
13321;SDS011;6730;46.248;6.930;2023-02-28T10:28:55;9.63;;;6.13;;
13321;SDS011;6730;46.248;6.930;2023-02-28T10:31:21;6.60;;;5.90;;
13321;SDS011;6730;46.248;6.930;2023-02-28T10:33:47;9.50;;;6.87;;
13321;SDS011;6730;46.248;6.930;2023-02-28T10:36:14;7.60;;;5.63;;
13321;SDS011;6730;46.248;6.930;2023-02-28T10:38:41;8.13;;;6.37;;
13321;SDS011;6730;46.248;6.930;2023-02-28T10:41:09;9.77;;;7.40;;
13321;SDS011;6730;46.248;6.930;2023-02-28T10:43:40;10.37;;;7.67;;
13321;SDS011;6730;46.248;6.930;2023-02-28T10:48:37;6.60;;;5.23;;
13321;SDS011;6730;46.248;6.930;2023-02-28T10:51:04;7.03;;;6.13;;
13321;SDS011;6730;46.248;6.930;2023-02-28T10:53:50;8.00;;;5.47;;
13321;SDS011;6730;46.248;6.930;2023-02-28T10:56:18;8.40;;;6.83;;
13321;SDS011;6730;46.248;6.930;2023-02-28T10:58:57;9.70;;;7.70;;
13321;SDS011;6730;46.248;6.930;2023-02-28T11:03:57;8.97;;;7.03;;
13321;SDS011;6730;46.248;6.930;2023-02-28T11:06:27;10.97;;;7.97;;
13321;SDS011;6730;46.248;6.930;2023-02-28T11:09:03;8.90;;;6.30;;
13321;SDS011;6730;46.248;6.930;2023-02-28T11:11:31;9.43;;;7.80;;
13321;SDS011;6730;46.248;6.930;2023-02-28T11:14:47;9.97;;;8.07;;
13321;SDS011;6730;46.248;6.930;2023-02-28T11:17:22;8.63;;;7.37;;
13321;SDS011;6730;46.248;6.930;2023-02-28T11:19:57;9.03;;;7.47;;
13321;SDS011;6730;46.248;6.930;2023-02-28T11:22:28;9.53;;;7.60;;
13321;SDS011;6730;46.248;6.930;2023-02-28T11:24:58;7.27;;;6.50;;
13321;SDS011;6730;46.248;6.930;2023-02-28T11:29:58;8.63;;;7.03;;
13321;SDS011;6730;46.248;6.930;2023-02-28T11:32:26;8.40;;;7.07;;
13321;SDS011;6730;46.248;6.930;2023-02-28T11:35:02;10.87;;;7.73;;
13321;SDS011;6730;46.248;6.930;2023-02-28T11:37:38;8.97;;;7.07;;
13321;SDS011;6730;46.248;6.930;2023-02-28T11:40:29;8.60;;;7.13;;
13321;SDS011;6730;46.248;6.930;2023-02-28T11:49:01;9.13;;;7.47;;
13321;SDS011;6730;46.248;6.930;2023-02-28T11:52:02;9.03;;;7.07;;
13321;SDS011;6730;46.248;6.930;2023-02-28T11:57:47;10.87;;;9.07;;
13321;SDS011;6730;46.248;6.930;2023-02-28T12:06:17;8.57;;;6.73;;
13321;SDS011;6730;46.248;6.930;2023-02-28T12:08:47;8.90;;;6.50;;
13321;SDS011;6730;46.248;6.930;2023-02-28T12:11:29;9.80;;;6.97;;
13321;SDS011;6730;46.248;6.930;2023-02-28T12:16:54;10.40;;;7.90;;
13321;SDS011;6730;46.248;6.930;2023-02-28T12:19:26;10.10;;;7.00;;
13321;SDS011;6730;46.248;6.930;2023-02-28T12:24:39;10.23;;;8.33;;
13321;SDS011;6730;46.248;6.930;2023-02-28T12:27:19;10.40;;;8.00;;
13321;SDS011;6730;46.248;6.930;2023-02-28T12:32:42;9.90;;;8.57;;
13321;SDS011;6730;46.248;6.930;2023-02-28T12:35:13;11.33;;;7.90;;
13321;SDS011;6730;46.248;6.930;2023-02-28T12:37:44;9.70;;;7.07;;
13321;SDS011;6730;46.248;6.930;2023-02-28T12:40:19;9.90;;;7.33;;
13321;SDS011;6730;46.248;6.930;2023-02-28T12:42:50;11.33;;;6.70;;
13321;SDS011;6730;46.248;6.930;2023-02-28T12:47:46;8.60;;;6.23;;
13321;SDS011;6730;46.248;6.930;2023-02-28T12:50:17;10.83;;;7.53;;
13321;SDS011;6730;46.248;6.930;2023-02-28T12:55:27;10.57;;;8.67;;
13321;SDS011;6730;46.248;6.930;2023-02-28T13:00:58;9.80;;;7.23;;
13321;SDS011;6730;46.248;6.930;2023-02-28T13:04:04;8.10;;;6.67;;
13321;SDS011;6730;46.248;6.930;2023-02-28T13:09:59;7.67;;;6.53;;
13321;SDS011;6730;46.248;6.930;2023-02-28T13:12:27;9.13;;;7.20;;
13321;SDS011;6730;46.248;6.930;2023-02-28T13:15:07;8.73;;;6.57;;
13321;SDS011;6730;46.248;6.930;2023-02-28T13:17:48;11.10;;;8.23;;
13321;SDS011;6730;46.248;6.930;2023-02-28T13:20:15;12.80;;;7.57;;
13321;SDS011;6730;46.248;6.930;2023-02-28T13:22:45;10.53;;;8.67;;
13321;SDS011;6730;46.248;6.930;2023-02-28T13:27:58;9.43;;;7.27;;
13321;SDS011;6730;46.248;6.930;2023-02-28T13:38:47;10.07;;;8.23;;
13321;SDS011;6730;46.248;6.930;2023-02-28T13:42:05;8.97;;;7.37;;
13321;SDS011;6730;46.248;6.930;2023-02-28T13:44:08;10.17;;;7.50;;
13321;SDS011;6730;46.248;6.930;2023-02-28T13:52:10;9.23;;;6.93;;
13321;SDS011;6730;46.248;6.930;2023-02-28T14:05:32;9.40;;;7.50;;
13321;SDS011;6730;46.248;6.930;2023-02-28T14:08:03;10.03;;;7.77;;
13321;SDS011;6730;46.248;6.930;2023-02-28T14:13:36;13.57;;;7.57;;
13321;SDS011;6730;46.248;6.930;2023-02-28T14:16:14;10.77;;;7.60;;
13321;SDS011;6730;46.248;6.930;2023-02-28T14:18:51;10.97;;;8.33;;
13321;SDS011;6730;46.248;6.930;2023-02-28T14:34:50;9.67;;;7.50;;
13321;SDS011;6730;46.248;6.930;2023-02-28T14:37:26;9.60;;;7.63;;
13321;SDS011;6730;46.248;6.930;2023-02-28T14:39:55;11.10;;;7.67;;
13321;SDS011;6730;46.248;6.930;2023-02-28T14:42:27;11.10;;;7.00;;
13321;SDS011;6730;46.248;6.930;2023-02-28T14:45:03;8.67;;;7.77;;
13321;SDS011;6730;46.248;6.930;2023-02-28T14:47:32;10.27;;;8.03;;
13321;SDS011;6730;46.248;6.930;2023-02-28T14:50:00;9.00;;;7.83;;
13321;SDS011;6730;46.248;6.930;2023-02-28T14:52:29;12.00;;;8.13;;
13321;SDS011;6730;46.248;6.930;2023-02-28T14:54:58;10.10;;;8.13;;
13321;SDS011;6730;46.248;6.930;2023-02-28T14:57:32;10.40;;;7.60;;
13321;SDS011;6730;46.248;6.930;2023-02-28T15:02:48;12.37;;;8.13;;
13321;SDS011;6730;46.248;6.930;2023-02-28T15:07:42;10.17;;;7.90;;
13321;SDS011;6730;46.248;6.930;2023-02-28T15:10:14;11.93;;;8.43;;
13321;SDS011;6730;46.248;6.930;2023-02-28T15:13:00;10.80;;;7.73;;
13321;SDS011;6730;46.248;6.930;2023-02-28T15:15:37;8.50;;;6.87;;
13321;SDS011;6730;46.248;6.930;2023-02-28T15:20:58;11.00;;;7.77;;
13321;SDS011;6730;46.248;6.930;2023-02-28T15:23:29;10.20;;;7.73;;
13321;SDS011;6730;46.248;6.930;2023-02-28T15:25:56;8.43;;;7.20;;
13321;SDS011;6730;46.248;6.930;2023-02-28T15:28:22;12.87;;;8.13;;
13321;SDS011;6730;46.248;6.930;2023-02-28T15:30:53;10.10;;;7.87;;
13321;SDS011;6730;46.248;6.930;2023-02-28T15:33:24;8.43;;;7.07;;
13321;SDS011;6730;46.248;6.930;2023-02-28T15:35:51;9.73;;;7.47;;
13321;SDS011;6730;46.248;6.930;2023-02-28T15:38:35;8.60;;;6.93;;
13321;SDS011;6730;46.248;6.930;2023-02-28T15:41:01;7.63;;;6.40;;
13321;SDS011;6730;46.248;6.930;2023-02-28T15:43:33;8.57;;;7.03;;
13321;SDS011;6730;46.248;6.930;2023-02-28T15:46:02;10.20;;;7.97;;
13321;SDS011;6730;46.248;6.930;2023-02-28T15:48:36;9.47;;;7.47;;
13321;SDS011;6730;46.248;6.930;2023-02-28T15:53:48;10.47;;;7.37;;
13321;SDS011;6730;46.248;6.930;2023-02-28T15:59:26;12.93;;;8.87;;
13321;SDS011;6730;46.248;6.930;2023-02-28T16:07:26;12.10;;;9.23;;
13321;SDS011;6730;46.248;6.930;2023-02-28T16:09:52;10.77;;;8.03;;
13321;SDS011;6730;46.248;6.930;2023-02-28T16:12:17;10.53;;;8.27;;
13321;SDS011;6730;46.248;6.930;2023-02-28T16:14:51;9.80;;;7.30;;
13321;SDS011;6730;46.248;6.930;2023-02-28T16:17:22;9.27;;;6.97;;
13321;SDS011;6730;46.248;6.930;2023-02-28T16:19:50;8.87;;;6.63;;
13321;SDS011;6730;46.248;6.930;2023-02-28T16:22:16;10.33;;;6.47;;
13321;SDS011;6730;46.248;6.930;2023-02-28T16:24:41;10.53;;;7.83;;
13321;SDS011;6730;46.248;6.930;2023-02-28T16:27:10;8.37;;;7.33;;
13321;SDS011;6730;46.248;6.930;2023-02-28T16:29:42;11.53;;;8.40;;
13321;SDS011;6730;46.248;6.930;2023-02-28T16:32:10;10.07;;;7.50;;
13321;SDS011;6730;46.248;6.930;2023-02-28T16:34:38;7.90;;;6.50;;
13321;SDS011;6730;46.248;6.930;2023-02-28T16:37:07;11.17;;;6.50;;
13321;SDS011;6730;46.248;6.930;2023-02-28T16:39:37;8.37;;;6.47;;
13321;SDS011;6730;46.248;6.930;2023-02-28T16:42:02;8.87;;;7.13;;
13321;SDS011;6730;46.248;6.930;2023-02-28T16:44:33;9.13;;;6.80;;
13321;SDS011;6730;46.248;6.930;2023-02-28T16:47:00;10.57;;;6.73;;
13321;SDS011;6730;46.248;6.930;2023-02-28T16:49:26;9.23;;;6.17;;
13321;SDS011;6730;46.248;6.930;2023-02-28T16:51:52;7.47;;;6.03;;
13321;SDS011;6730;46.248;6.930;2023-02-28T16:54:18;8.77;;;7.00;;
13321;SDS011;6730;46.248;6.930;2023-02-28T16:56:45;7.53;;;6.10;;
13321;SDS011;6730;46.248;6.930;2023-02-28T16:59:12;8.23;;;6.97;;
13321;SDS011;6730;46.248;6.930;2023-02-28T17:01:39;7.20;;;6.10;;
13321;SDS011;6730;46.248;6.930;2023-02-28T17:04:05;11.97;;;7.20;;
13321;SDS011;6730;46.248;6.930;2023-02-28T17:06:33;8.60;;;7.03;;
13321;SDS011;6730;46.248;6.930;2023-02-28T17:08:59;9.87;;;6.60;;
13321;SDS011;6730;46.248;6.930;2023-02-28T17:11:25;8.90;;;6.83;;
13321;SDS011;6730;46.248;6.930;2023-02-28T17:13:51;10.53;;;7.70;;
13321;SDS011;6730;46.248;6.930;2023-02-28T17:18:59;8.33;;;6.60;;
13321;SDS011;6730;46.248;6.930;2023-02-28T17:21:27;9.80;;;7.37;;
13321;SDS011;6730;46.248;6.930;2023-02-28T17:23:54;8.57;;;6.30;;
13321;SDS011;6730;46.248;6.930;2023-02-28T17:26:23;8.83;;;7.13;;
13321;SDS011;6730;46.248;6.930;2023-02-28T17:28:50;8.00;;;6.57;;
13321;SDS011;6730;46.248;6.930;2023-02-28T17:31:23;8.57;;;6.83;;
13321;SDS011;6730;46.248;6.930;2023-02-28T17:33:51;9.87;;;6.67;;
13321;SDS011;6730;46.248;6.930;2023-02-28T17:36:18;9.80;;;7.43;;
13321;SDS011;6730;46.248;6.930;2023-02-28T17:38:47;11.13;;;8.13;;